Time;durP1;ratioP1;P1;durP2;ratioP2;P2;SDS_P1;SDS_P2;PMS_P1;PMS_P2;Temp;Humidity;BMP_temperature;BMP_pressure;BME280_temperature;BME280_humidity;BME280_pressure;Samples;Min_cycle;Max_cycle;Signal;HPM_P1;HPM_P2
2022/04/29 00:02:16;;;;;;;1.65;0.35;;;;;;;19.38;46.88;101529.53;5045321;28;20114;-49
2022/04/29 00:04:43;;;;;;;1.00;0.40;;;;;;;19.38;46.85;101534.81;5045909;28;20038;-50
2022/04/29 00:07:10;;;;;;;0.90;0.30;;;;;;;19.37;46.85;101534.03;5054352;28;20484;-52
2022/04/29 00:09:36;;;;;;;1.15;0.38;;;;;;;19.36;46.82;101526.28;5051514;28;20511;-50
2022/04/29 00:12:04;;;;;;;0.68;0.38;;;;;;;19.36;47.00;101528.91;5043365;28;20052;-51
2022/04/29 00:14:29;;;;;;;0.68;0.40;;;;;;;19.37;46.90;101527.94;5046689;28;20429;-53
2022/04/29 00:16:55;;;;;;;0.85;0.40;;;;;;;19.35;46.94;101520.16;5039492;28;20031;-51
2022/04/29 00:19:21;;;;;;;1.23;0.35;;;;;;;19.35;47.06;101522.81;5042132;28;20044;-50
2022/04/29 00:21:46;;;;;;;0.85;0.35;;;;;;;19.34;46.90;101515.88;5049317;28;20378;-49
2022/04/29 00:24:12;;;;;;;1.63;0.40;;;;;;;19.34;47.03;101526.44;5043265;28;20128;-48
2022/04/29 00:26:39;;;;;;;0.60;0.30;;;;;;;19.36;47.10;101528.91;5042294;28;20037;-49
2022/04/29 00:29:06;;;;;;;1.85;0.30;;;;;;;19.35;47.17;101530.75;5043519;28;20021;-49
2022/04/29 00:31:32;;;;;;;1.00;0.28;;;;;;;19.37;47.02;101527.94;5045106;28;20045;-49
2022/04/29 00:33:58;;;;;;;0.80;0.30;;;;;;;19.34;47.00;101523.81;5057958;28;20677;-50
2022/04/29 00:36:23;;;;;;;1.08;0.30;;;;;;;19.35;47.13;101525.47;5045189;28;20029;-54
2022/04/29 00:38:49;;;;;;;0.73;0.32;;;;;;;19.35;47.11;101527.28;5042657;28;20048;-52
2022/04/29 00:41:19;;;;;;;1.20;0.30;;;;;;;19.33;47.11;101532.72;5044155;28;20029;-52
2022/04/29 00:43:44;;;;;;;0.40;0.30;;;;;;;19.34;47.15;101520.34;5046628;28;20261;-48
2022/04/29 00:46:10;;;;;;;0.50;0.30;;;;;;;19.33;46.82;101523.97;5052009;28;20310;-49
2022/04/29 00:48:36;;;;;;;1.40;0.50;;;;;;;19.32;46.92;101527.63;5042488;28;20025;-49
2022/04/29 00:51:03;;;;;;;0.98;0.30;;;;;;;19.31;47.05;101526.81;5040887;28;20082;-51
2022/04/29 00:53:29;;;;;;;0.98;0.30;;;;;;;19.31;47.05;101525.97;5044865;28;20108;-49
2022/04/29 00:55:57;;;;;;;1.00;0.40;;;;;;;19.32;47.05;101517.06;5046288;28;20033;-48
2022/04/29 00:58:32;;;;;;;0.68;0.40;;;;;;;19.29;47.04;101515.59;5043259;28;20098;-49
2022/04/29 01:01:00;;;;;;;0.60;0.32;;;;;;;19.30;47.04;101517.22;5044436;28;20032;-49
2022/04/29 01:03:28;;;;;;;1.40;0.47;;;;;;;19.29;46.92;101517.41;5046800;28;20396;-53
2022/04/29 01:05:54;;;;;;;1.25;0.30;;;;;;;19.29;46.90;101515.59;5041870;28;20025;-49
2022/04/29 01:08:19;;;;;;;0.68;0.30;;;;;;;19.30;46.84;101511.13;5044887;28;20213;-47
2022/04/29 01:10:46;;;;;;;0.75;0.30;;;;;;;19.29;46.99;101512.94;5046287;28;20415;-52
2022/04/29 01:13:12;;;;;;;0.40;0.20;;;;;;;19.31;47.06;101513.59;5043679;28;20187;-49
2022/04/29 01:15:38;;;;;;;0.68;0.30;;;;;;;19.30;46.86;101509.31;5039618;28;20239;-52
2022/04/29 01:18:06;;;;;;;0.52;0.40;;;;;;;19.32;47.01;101511.78;5055711;28;20395;-48
2022/04/29 01:20:33;;;;;;;1.40;0.40;;;;;;;19.32;46.87;101512.59;5040649;28;20048;-46
2022/04/29 01:23:04;;;;;;;1.00;0.30;;;;;;;19.32;46.98;101507.31;5048407;28;20025;-50
2022/04/29 01:25:30;;;;;;;1.50;0.40;;;;;;;19.34;46.89;101504.50;5046837;28;20136;-48
2022/04/29 01:27:55;;;;;;;0.88;0.40;;;;;;;19.35;46.91;101522.00;5047472;28;20535;-51
2022/04/29 01:30:21;;;;;;;1.75;0.40;;;;;;;19.36;46.78;101513.88;5043357;28;20082;-49
2022/04/29 01:32:46;;;;;;;1.27;0.50;;;;;;;19.36;46.81;101511.25;5043170;28;20124;-53
2022/04/29 01:35:13;;;;;;;0.60;0.30;;;;;;;19.37;46.74;101514.72;5039351;28;20064;-50
2022/04/29 01:37:39;;;;;;;0.50;0.30;;;;;;;19.36;46.62;101513.88;5044116;28;20034;-51
2022/04/29 01:40:06;;;;;;;0.85;0.40;;;;;;;19.36;46.75;101505.97;5045039;28;20489;-48
2022/04/29 01:42:32;;;;;;;0.93;0.35;;;;;;;19.36;46.86;101513.88;5040551;28;20060;-50
2022/04/29 01:44:58;;;;;;;0.52;0.30;;;;;;;19.33;46.83;101508.97;5046031;28;20605;-53
2022/04/29 01:47:23;;;;;;;1.25;0.30;;;;;;;19.34;46.92;101515.06;5043759;28;20037;-49
2022/04/29 01:49:49;;;;;;;1.20;0.40;;;;;;;19.33;46.79;101513.41;5052622;28;20078;-49
2022/04/29 01:52:14;;;;;;;0.88;0.32;;;;;;;19.32;46.87;101502.03;5043419;28;20067;-52
2022/04/29 01:54:40;;;;;;;0.70;0.35;;;;;;;19.31;46.62;101518.88;5055400;28;20415;-51
2022/04/29 01:57:06;;;;;;;0.90;0.30;;;;;;;19.31;46.53;101510.94;5044582;28;20036;-49
2022/04/29 01:59:32;;;;;;;0.65;0.38;;;;;;;19.31;46.62;101512.78;5046033;28;20154;-53
2022/04/29 02:01:59;;;;;;;1.00;0.30;;;;;;;19.30;46.77;101504.03;5047079;28;20391;-50
2022/04/29 02:04:25;;;;;;;3.75;0.73;;;;;;;19.30;46.73;101509.31;5039608;28;20021;-52
2022/04/29 02:06:50;;;;;;;0.93;0.30;;;;;;;19.29;46.91;101510.31;5045084;28;20079;-50
2022/04/29 02:09:16;;;;;;;0.70;0.50;;;;;;;19.29;46.98;101504.19;5047211;28;20033;-52
2022/04/29 02:12:03;;;;;;;0.70;0.30;;;;;;;19.29;46.86;101502.38;5344768;22;20445;-50
2022/04/29 02:14:28;;;;;;;1.73;0.30;;;;;;;19.27;46.94;101500.91;5030072;28;20468;-50
2022/04/29 02:16:55;;;;;;;0.90;0.35;;;;;;;19.27;46.99;101499.09;5024822;28;20480;-52
2022/04/29 02:19:22;;;;;;;0.50;0.30;;;;;;;19.27;47.01;101493.81;5026073;28;20453;-52
2022/04/29 02:21:48;;;;;;;2.15;0.32;;;;;;;19.28;46.95;101507.84;5024332;28;20041;-52
2022/04/29 02:24:14;;;;;;;2.40;0.38;;;;;;;19.26;47.03;101497.44;5024673;28;20034;-52
2022/04/29 02:26:39;;;;;;;1.83;0.30;;;;;;;19.26;46.96;101496.63;5025708;28;20033;-50
2022/04/29 02:29:06;;;;;;;1.20;0.35;;;;;;;19.26;46.69;101502.72;5026410;28;20627;-50
2022/04/29 02:31:32;;;;;;;0.77;0.30;;;;;;;19.26;46.93;101496.63;5024113;28;20060;-53
2022/04/29 02:33:57;;;;;;;0.70;0.30;;;;;;;19.26;46.68;101492.16;5025123;28;20083;-50
2022/04/29 02:36:23;;;;;;;0.52;0.20;;;;;;;19.26;46.64;101489.50;5026236;28;20080;-52
2022/04/29 02:38:48;;;;;;;1.42;0.30;;;;;;;19.26;46.73;101499.25;5025188;28;20041;-52
2022/04/29 02:41:13;;;;;;;0.85;0.30;;;;;;;19.26;46.87;101492.16;5024355;28;20156;-53
2022/04/29 02:43:40;;;;;;;1.73;0.32;;;;;;;19.26;46.83;101502.72;5025255;28;20042;-49
2022/04/29 02:46:05;;;;;;;0.60;0.30;;;;;;;19.26;46.95;101493.97;5026232;28;20041;-50
2022/04/29 02:48:31;;;;;;;1.30;0.40;;;;;;;19.25;46.92;101485.22;5022352;28;20033;-54
2022/04/29 02:50:56;;;;;;;0.57;0.30;;;;;;;19.24;46.70;101494.16;5024215;28;20142;-46
2022/04/29 02:53:22;;;;;;;0.85;0.40;;;;;;;19.24;46.80;101483.59;5026009;28;20360;-55
2022/04/29 02:55:47;;;;;;;0.65;0.22;;;;;;;19.23;46.64;101487.22;5028470;28;20057;-50
2022/04/29 02:58:13;;;;;;;0.75;0.40;;;;;;;19.22;46.66;101483.75;5027233;28;20404;-55
2022/04/29 03:00:39;;;;;;;2.05;0.40;;;;;;;19.23;46.75;101484.59;5029019;28;20036;-53
2022/04/29 03:03:05;;;;;;;1.20;0.50;;;;;;;19.22;46.66;101490.88;5028489;28;20202;-50
2022/04/29 03:05:31;;;;;;;1.80;0.30;;;;;;;19.22;46.74;101489.03;5030251;28;20116;-49
2022/04/29 03:07:56;;;;;;;1.33;0.30;;;;;;;19.22;46.54;101480.28;5029618;28;20059;-53
2022/04/29 03:10:22;;;;;;;1.02;0.40;;;;;;;19.23;46.58;101490.69;5030252;28;20393;-52
2022/04/29 03:12:47;;;;;;;1.50;0.30;;;;;;;19.23;46.50;101480.13;5027408;28;20045;-52
2022/04/29 03:15:16;;;;;;;1.00;0.47;;;;;;;19.23;46.63;101485.41;5029015;28;20033;-52
2022/04/29 03:20:27;;;;;;;1.13;0.37;;;;;;;19.23;46.66;101471.38;5030022;28;20072;-53
2022/04/29 03:22:52;;;;;;;1.67;0.50;;;;;;;19.24;46.54;101473.03;5026975;28;20735;-51
2022/04/29 03:25:18;;;;;;;0.75;0.43;;;;;;;19.26;46.83;101476.31;5028862;28;20499;-54
2022/04/29 03:27:43;;;;;;;0.77;0.30;;;;;;;19.26;46.53;101472.84;5026279;28;20037;-53
2022/04/29 03:30:09;;;;;;;1.48;0.32;;;;;;;19.26;46.61;101473.66;5029730;28;20033;-52
2022/04/29 03:32:35;;;;;;;2.35;0.40;;;;;;;19.27;46.56;101474.50;5027618;28;20037;-55
2022/04/29 03:35:00;;;;;;;0.70;0.30;;;;;;;19.27;46.50;101477.94;5027532;28;20026;-53
2022/04/29 03:37:26;;;;;;;1.20;0.40;;;;;;;19.27;46.42;101467.38;5028340;28;20534;-54
2022/04/29 03:39:53;;;;;;;1.48;0.38;;;;;;;19.27;46.54;101469.19;5029349;28;20026;-53
2022/04/29 03:42:19;;;;;;;0.60;0.40;;;;;;;19.26;46.50;101471.03;5026250;28;20025;-51
2022/04/29 03:44:44;;;;;;;2.15;0.60;;;;;;;19.26;46.33;101472.84;5026819;28;20036;-56
2022/04/29 03:47:09;;;;;;;0.60;0.38;;;;;;;19.27;46.46;101477.13;5028121;28;20034;-52
2022/04/29 03:49:38;;;;;;;0.60;0.40;;;;;;;19.26;46.61;101471.03;5024657;28;20032;-55
2022/04/29 03:52:05;;;;;;;0.60;0.30;;;;;;;19.25;46.43;101473.84;5028082;28;20057;-52
2022/04/29 03:54:30;;;;;;;1.02;0.50;;;;;;;19.23;46.49;101477.47;5027563;28;20060;-47
2022/04/29 03:56:56;;;;;;;0.60;0.30;;;;;;;19.23;46.48;101474.84;5028011;28;20571;-53
2022/04/29 03:59:22;;;;;;;1.60;0.47;;;;;;;19.23;46.44;101476.66;5029027;28;20040;-53
2022/04/29 04:01:48;;;;;;;0.90;0.30;;;;;;;19.22;46.48;101475.84;5027262;28;20034;-53
2022/04/29 04:04:13;;;;;;;1.13;0.30;;;;;;;19.21;46.56;101474.19;5026405;28;20049;-57
2022/04/29 04:06:51;;;;;;;1.05;0.30;;;;;;;19.21;46.56;101476.00;5026493;28;20040;-51
2022/04/29 04:09:21;;;;;;;0.80;0.40;;;;;;;19.19;46.54;101480.66;5027198;28;20400;-50
2022/04/29 04:11:48;;;;;;;0.73;0.30;;;;;;;19.20;46.51;101483.13;5026284;28;20123;-52
2022/04/29 04:14:15;;;;;;;0.50;0.30;;;;;;;19.20;46.51;101477.00;5026393;28;20034;-53
2022/04/29 04:16:40;;;;;;;0.60;0.30;;;;;;;19.19;46.44;101480.66;5028696;28;20112;-51
2022/04/29 04:19:06;;;;;;;0.93;0.20;;;;;;;19.20;46.41;101484.94;5027517;28;20231;-54
2022/04/29 04:21:32;;;;;;;0.75;0.32;;;;;;;19.19;46.52;101491.22;5008720;28;20528;-52
2022/04/29 04:23:58;;;;;;;0.55;0.28;;;;;;;19.19;46.67;101493.84;5015134;28;20033;-53
2022/04/29 04:26:23;;;;;;;2.35;0.35;;;;;;;19.19;46.71;101496.50;5028370;28;20035;-54
2022/04/29 04:28:49;;;;;;;1.58;0.40;;;;;;;19.17;46.54;101496.66;5025937;28;20063;-51
2022/04/29 04:31:15;;;;;;;1.05;0.30;;;;;;;19.18;46.43;101497.50;5028640;28;20043;-55
2022/04/29 04:33:40;;;;;;;1.05;0.20;;;;;;;19.18;46.48;101506.25;5026074;28;20642;-54
2022/04/29 04:36:06;;;;;;;0.55;0.30;;;;;;;19.18;46.43;101506.25;5028104;28;20037;-55
2022/04/29 04:38:32;;;;;;;0.70;0.32;;;;;;;19.19;46.38;101507.06;5027016;28;20099;-55
2022/04/29 04:40:58;;;;;;;1.33;0.22;;;;;;;19.20;46.52;101509.53;5028229;28;20437;-53
2022/04/29 04:43:27;;;;;;;1.02;0.40;;;;;;;19.20;46.22;101511.34;5025778;28;20036;-54
2022/04/29 04:45:53;;;;;;;0.50;0.30;;;;;;;19.21;46.40;101516.47;5026619;28;20544;-52
2022/04/29 04:48:19;;;;;;;0.82;0.30;;;;;;;19.21;46.18;101510.34;5027079;28;20113;-53
2022/04/29 04:50:45;;;;;;;0.63;0.30;;;;;;;19.21;46.30;101510.34;5027069;28;20414;-47
2022/04/29 04:53:10;;;;;;;0.73;0.30;;;;;;;19.22;46.41;101512.00;5026573;28;20029;-50
2022/04/29 04:55:36;;;;;;;0.60;0.40;;;;;;;19.22;46.20;101517.28;5027842;28;20159;-53
2022/04/29 04:58:02;;;;;;;0.60;0.30;;;;;;;19.21;46.20;101516.47;5026887;28;20119;-51
2022/04/29 05:00:27;;;;;;;0.50;0.20;;;;;;;19.21;46.30;101523.56;5024873;28;20121;-47
2022/04/29 05:02:52;;;;;;;0.93;0.32;;;;;;;19.20;46.10;101514.81;5025541;28;20084;-53
2022/04/29 05:05:18;;;;;;;0.45;0.30;;;;;;;19.20;46.33;101512.16;5026374;28;20126;-51
2022/04/29 05:07:43;;;;;;;0.70;0.40;;;;;;;19.20;46.11;101514.00;5027677;28;20029;-49
2022/04/29 05:10:10;;;;;;;0.68;0.40;;;;;;;19.21;46.12;101520.91;5026746;28;20033;-53
2022/04/29 05:12:43;;;;;;;0.75;0.35;;;;;;;19.22;46.05;101525.22;5025816;28;20049;-52
2022/04/29 05:15:09;;;;;;;2.45;0.80;;;;;;;19.22;45.98;101530.50;5023730;28;20504;-52
2022/04/29 05:17:35;;;;;;;1.15;0.30;;;;;;;19.23;45.89;101518.94;5026136;28;20153;-55
2022/04/29 05:20:01;;;;;;;1.27;0.32;;;;;;;19.23;45.89;101530.31;5024494;28;20659;-53
2022/04/29 05:22:29;;;;;;;2.10;0.30;;;;;;;19.23;46.20;101524.22;5026103;28;20041;-46
2022/04/29 05:24:55;;;;;;;2.58;0.40;;;;;;;19.23;45.97;101522.41;5025662;28;20033;-52
2022/04/29 05:27:21;;;;;;;1.30;0.30;;;;;;;19.26;45.83;101521.22;5024919;28;20127;-49
2022/04/29 05:29:46;;;;;;;0.82;0.30;;;;;;;19.26;46.06;101523.03;5025556;28;20108;-49
2022/04/29 05:32:13;;;;;;;0.45;0.30;;;;;;;19.26;45.74;101526.50;5027234;28;20143;-54
2022/04/29 05:34:39;;;;;;;1.85;0.45;;;;;;;19.26;45.66;101526.50;5025007;28;20496;-50
2022/04/29 05:37:05;;;;;;;0.60;0.30;;;;;;;19.28;45.74;101526.34;5026856;28;20088;-51
2022/04/29 05:42:14;;;;;;;0.75;0.25;;;;;;;19.27;45.78;101532.63;5027219;28;20052;-50
2022/04/29 05:44:40;;;;;;;0.70;0.40;;;;;;;19.26;45.87;101523.88;5024518;28;20029;-47
2022/04/29 05:47:06;;;;;;;0.73;0.30;;;;;;;19.26;45.76;101529.16;5025450;28;20465;-51
2022/04/29 05:49:32;;;;;;;0.88;0.40;;;;;;;19.27;45.77;101535.25;5024630;28;20029;-47
2022/04/29 05:52:02;;;;;;;0.73;0.40;;;;;;;19.26;45.91;101530.97;5024721;28;20440;-51
2022/04/29 05:54:28;;;;;;;1.33;0.30;;;;;;;19.26;45.92;101534.44;5024975;28;20036;-49
2022/04/29 05:56:53;;;;;;;0.60;0.40;;;;;;;19.27;45.99;101535.25;5026598;28;20455;-48
2022/04/29 05:59:21;;;;;;;0.82;0.20;;;;;;;19.25;45.87;101538.06;5023049;28;20076;-50
2022/04/29 06:01:47;;;;;;;0.98;0.40;;;;;;;19.26;46.09;101534.44;5024614;28;20494;-49
2022/04/29 06:04:12;;;;;;;1.42;0.30;;;;;;;19.25;46.12;101538.06;5025746;28;20121;-46
2022/04/29 06:06:38;;;;;;;0.90;0.35;;;;;;;19.25;45.81;101542.53;5024023;28;20049;-47
2022/04/29 06:09:03;;;;;;;1.35;0.38;;;;;;;19.23;46.18;101540.06;5026985;28;20033;-52
2022/04/29 06:11:29;;;;;;;2.13;0.30;;;;;;;19.25;45.79;101545.19;5024640;28;20420;-50
2022/04/29 06:13:54;;;;;;;1.05;0.40;;;;;;;19.25;45.80;101545.19;5024034;28;20040;-50
2022/04/29 06:16:20;;;;;;;1.10;0.40;;;;;;;19.23;46.04;101540.06;5026178;28;20029;-48
2022/04/29 06:18:45;;;;;;;2.20;0.40;;;;;;;19.23;46.11;101548.00;5024741;28;20038;-50
2022/04/29 06:21:11;;;;;;;2.03;0.30;;;;;;;19.22;45.99;101546.34;5031607;28;20510;-53
2022/04/29 06:23:36;;;;;;;0.80;0.30;;;;;;;19.22;46.21;101543.69;5024692;28;20095;-51
2022/04/29 06:26:02;;;;;;;1.42;0.50;;;;;;;19.22;46.89;101549.81;5022614;28;20033;-50
2022/04/29 06:28:27;;;;;;;2.78;0.43;;;;;;;19.27;47.43;101548.47;5026782;28;20120;-45
2022/04/29 06:30:53;;;;;;;1.35;0.50;;;;;;;19.39;48.96;101542.56;5025460;28;20504;-51
2022/04/29 06:33:18;;;;;;;1.80;0.60;;;;;;;19.49;49.30;101555.56;5035127;22;20083;-52
2022/04/29 06:35:44;;;;;;;6.50;1.85;;;;;;;19.57;49.97;101552.06;5059550;28;20432;-47
2022/04/29 06:38:14;;;;;;;2.97;1.73;;;;;;;19.60;49.74;101546.44;5062077;28;20028;-49
2022/04/29 06:40:39;;;;;;;4.13;0.90;;;;;;;19.53;49.40;101547.13;5066349;28;20483;-53
2022/04/29 06:43:04;;;;;;;2.65;0.50;;;;;;;19.50;48.74;101544.81;5067292;28;20043;-56
2022/04/29 06:45:30;;;;;;;7.18;0.50;;;;;;;19.48;48.38;101541.53;5066615;28;20056;-46
2022/04/29 06:47:56;;;;;;;6.05;0.47;;;;;;;19.44;48.41;101548.16;5065932;28;20050;-61
2022/04/29 06:50:21;;;;;;;2.67;0.50;;;;;;;19.44;48.37;101550.81;5068632;28;20085;-57
2022/04/29 06:52:47;;;;;;;4.22;0.65;;;;;;;19.44;48.04;101542.88;5064826;28;20444;-60
2022/04/29 06:55:12;;;;;;;1.88;0.40;;;;;;;19.43;47.86;101550.97;5068088;28;20037;-57
2022/04/29 06:57:37;;;;;;;5.47;0.30;;;;;;;19.42;47.71;101551.97;5068605;28;20090;-51
2022/04/29 07:00:05;;;;;;;4.63;0.30;;;;;;;19.40;47.60;101549.50;5064393;28;20033;-55
2022/04/29 07:02:32;;;;;;;4.95;0.40;;;;;;;19.38;47.40;101548.84;5060868;28;20036;-48
2022/04/29 07:04:59;;;;;;;3.50;0.45;;;;;;;19.37;47.00;101544.59;5067608;28;20028;-55
2022/04/29 07:07:28;;;;;;;2.80;0.40;;;;;;;19.32;43.57;101546.94;5059256;28;20111;-56
2022/04/29 07:09:54;;;;;;;0.82;0.30;;;;;;;19.26;40.71;101547.66;5068283;28;20429;-57
2022/04/29 07:12:20;;;;;;;2.15;0.40;;;;;;;19.26;40.34;101550.28;5061883;28;20384;-56
2022/04/29 07:14:45;;;;;;;2.10;0.50;;;;;;;19.28;40.66;101537.72;5063931;28;20062;-57
2022/04/29 07:17:10;;;;;;;3.75;0.60;;;;;;;19.30;40.40;101546.28;5061576;28;20028;-58
2022/04/29 07:19:39;;;;;;;1.48;0.40;;;;;;;19.32;41.03;101544.31;5057760;28;20040;-58
2022/04/29 07:22:05;;;;;;;1.95;0.30;;;;;;;19.32;41.38;101536.38;5067459;28;20598;-57
2022/04/29 07:24:31;;;;;;;1.33;0.47;;;;;;;19.34;41.66;101530.91;5065007;28;20077;-58
2022/04/29 07:26:57;;;;;;;0.85;0.30;;;;;;;19.34;42.16;101546.78;5066595;28;20462;-58
2022/04/29 07:29:23;;;;;;;3.70;0.47;;;;;;;19.34;42.27;101531.75;5057954;28;20176;-56
2022/04/29 07:31:48;;;;;;;3.05;0.40;;;;;;;19.37;42.90;101538.50;5064735;28;20471;-58
2022/04/29 07:34:14;;;;;;;4.03;0.40;;;;;;;19.36;42.58;101531.56;5069052;28;20047;-57
2022/04/29 07:42:07;;;;;;;1.85;0.52;;;;;;;19.35;43.00;101525.47;5057560;28;20106;-58
2022/04/29 07:44:33;;;;;;;2.25;0.30;;;;;;;19.34;43.11;101529.09;5062541;28;20028;-57
2022/04/29 07:47:00;;;;;;;0.90;0.30;;;;;;;19.33;43.04;101519.53;5066925;28;20028;-56
2022/04/29 07:49:25;;;;;;;2.30;0.43;;;;;;;19.34;43.43;101521.16;5066645;28;20060;-58
2022/04/29 07:51:51;;;;;;;0.98;0.50;;;;;;;19.34;43.68;101517.69;5064530;28;20060;-56
2022/04/29 07:54:16;;;;;;;2.63;0.40;;;;;;;19.34;43.91;101509.78;5067744;28;20036;-57
2022/04/29 07:56:42;;;;;;;1.98;0.30;;;;;;;19.32;43.93;101507.31;5068236;28;20119;-57
2022/04/29 07:59:07;;;;;;;1.10;0.40;;;;;;;19.34;44.05;101520.34;5066984;28;20078;-58
2022/04/29 08:01:37;;;;;;;1.10;0.30;;;;;;;19.32;43.99;101501.19;5060184;28;20101;-59
2022/04/29 08:04:02;;;;;;;1.15;0.30;;;;;;;19.33;44.19;101511.59;5068381;28;20090;-56
2022/04/29 08:06:28;;;;;;;1.13;0.35;;;;;;;19.33;44.33;101508.97;5067709;28;20538;-57
2022/04/29 08:08:53;;;;;;;1.23;0.40;;;;;;;19.32;44.42;101496.75;5066464;28;20035;-57
2022/04/29 08:11:19;;;;;;;0.57;0.38;;;;;;;19.32;44.50;101498.56;5065776;28;20036;-57
2022/04/29 08:13:45;;;;;;;2.50;0.38;;;;;;;19.32;44.85;101506.50;5063181;28;20025;-56
2022/04/29 08:16:12;;;;;;;1.00;0.32;;;;;;;19.31;44.79;101503.03;5067152;28;20041;-57
2022/04/29 08:18:37;;;;;;;1.88;0.30;;;;;;;19.31;44.79;101495.09;5066946;28;20107;-58
2022/04/29 08:21:03;;;;;;;1.80;0.30;;;;;;;19.31;44.74;101499.56;5064722;28;20186;-55
2022/04/29 08:23:28;;;;;;;1.83;0.40;;;;;;;19.30;44.80;101496.09;5067048;28;20036;-57
2022/04/29 08:25:55;;;;;;;0.60;0.30;;;;;;;19.30;44.96;101488.16;5066614;28;20035;-57
2022/04/29 08:28:23;;;;;;;4.38;0.40;;;;;;;19.29;44.84;101486.53;5059675;28;20408;-57
2022/04/29 08:30:48;;;;;;;3.47;0.43;;;;;;;19.29;44.73;101491.00;5060775;28;20133;-57
2022/04/29 08:33:15;;;;;;;0.82;0.30;;;;;;;19.28;44.49;101490.16;5058335;28;21973;-59
2022/04/29 08:35:42;;;;;;;0.40;0.30;;;;;;;19.28;44.50;101495.44;5064815;28;20474;-60
2022/04/29 08:38:11;;;;;;;0.50;0.20;;;;;;;19.27;44.51;101492.97;5066637;28;20027;-59
2022/04/29 08:40:41;;;;;;;0.73;0.20;;;;;;;19.26;44.58;101486.88;5057985;28;20147;-59
2022/04/29 08:43:08;;;;;;;2.58;0.57;;;;;;;19.28;46.01;101490.16;5063664;28;20029;-58
2022/04/29 08:45:36;;;;;;;1.52;0.40;;;;;;;19.32;46.61;101483.53;5061965;28;20033;-60
2022/04/29 08:48:02;;;;;;;2.30;0.40;;;;;;;19.35;46.82;101491.09;5059900;28;20036;-60
2022/04/29 08:50:30;;;;;;;4.50;0.47;;;;;;;19.37;46.58;101494.41;5059850;28;20473;-61
2022/04/29 08:52:57;;;;;;;2.65;0.35;;;;;;;19.39;46.35;101476.50;5064342;28;20051;-58
2022/04/29 09:00:52;;;;;;;0.95;0.40;;;;;;;19.38;45.54;101474.03;5057543;28;20135;-56
2022/04/29 09:03:22;;;;;;;1.13;0.30;;;;;;;19.38;45.22;101466.13;5066866;28;20112;-51
2022/04/29 09:05:49;;;;;;;0.90;0.30;;;;;;;19.38;45.40;101463.47;5062298;28;20041;-62
2022/04/29 09:08:16;;;;;;;0.82;0.30;;;;;;;19.39;45.50;101459.84;5066220;28;20021;-64
2022/04/29 09:10:53;;;;;;;2.03;0.30;;;;;;;19.36;45.38;101449.66;5056995;28;20036;-59
2022/04/29 09:13:24;;;;;;;0.60;0.30;;;;;;;19.37;45.51;101465.31;5059710;28;20522;-60
2022/04/29 09:15:57;;;;;;;1.25;0.30;;;;;;;19.35;45.49;101454.13;5055003;28;20566;-59
2022/04/29 09:18:42;;;;;;;0.43;0.20;;;;;;;19.33;45.21;101448.19;5059734;28;20038;-59
2022/04/29 09:21:12;;;;;;;1.25;0.30;;;;;;;19.33;45.07;101442.91;5061061;28;20028;-60
2022/04/29 09:23:44;;;;;;;1.90;0.50;;;;;;;19.32;44.51;101438.59;5063439;28;20036;-57
2022/04/29 09:26:34;;;;;;;11.98;0.68;;;;;;;19.31;44.33;101444.91;5065634;28;20047;-57
2022/04/29 09:29:19;;;;;;;19.38;1.17;;;;;;;19.31;44.75;101431.69;5057552;28;20106;-56
2022/04/29 09:31:56;;;;;;;12.50;0.50;;;;;;;19.33;44.58;101429.69;5060149;28;20031;-59
2022/04/29 09:34:53;;;;;;;9.57;0.63;;;;;;;19.32;44.36;101421.94;5054462;28;20330;-59
2022/04/29 09:37:24;;;;;;;4.32;0.30;;;;;;;19.33;43.18;101407.72;5064447;28;20059;-59
2022/04/29 09:39:54;;;;;;;6.15;0.30;;;;;;;19.33;42.52;101419.13;5065790;28;20056;-58
2022/04/29 09:42:20;;;;;;;7.50;0.40;;;;;;;19.34;41.60;101407.53;5064855;28;20032;-58
2022/04/29 09:44:47;;;;;;;5.95;0.50;;;;;;;19.34;41.75;101404.91;5067048;28;20031;-59
2022/04/29 09:47:13;;;;;;;2.65;0.60;;;;;;;19.37;41.27;101409.84;5070332;28;20032;-59
2022/04/29 09:49:40;;;;;;;2.45;0.40;;;;;;;19.37;40.09;101398.44;5066644;28;20085;-59
2022/04/29 09:52:07;;;;;;;6.15;0.45;;;;;;;19.36;39.56;101396.81;5062260;28;20073;-59
2022/04/29 09:54:37;;;;;;;2.97;0.30;;;;;;;19.36;39.43;101394.16;5062687;28;20088;-59
2022/04/29 09:57:18;;;;;;;2.53;0.40;;;;;;;19.35;39.50;101389.88;5065699;28;20115;-59
2022/04/29 09:59:48;;;;;;;2.10;0.30;;;;;;;19.35;39.48;101389.88;5065966;28;20036;-59
2022/04/29 10:02:21;;;;;;;2.45;0.40;;;;;;;19.33;39.63;101387.41;5064380;28;20042;-59
2022/04/29 10:04:48;;;;;;;2.03;0.38;;;;;;;19.34;39.72;101386.41;5063519;28;20029;-60
2022/04/29 10:07:18;;;;;;;3.67;0.38;;;;;;;19.35;39.80;101374.84;5064566;28;20557;-59
2022/04/29 10:09:52;;;;;;;1.83;0.30;;;;;;;19.34;39.97;101367.91;5063568;28;20020;-59
2022/04/29 10:12:23;;;;;;;0.90;0.40;;;;;;;19.35;39.72;101372.19;5060539;28;20491;-59
2022/04/29 10:14:58;;;;;;;1.10;0.32;;;;;;;19.33;39.80;101368.91;5053777;28;20049;-59
2022/04/29 10:23:14;;;;;;;1.38;0.45;;;;;;;19.31;38.93;101352.41;5061063;28;20093;-59
2022/04/29 10:25:42;;;;;;;1.30;0.40;;;;;;;19.31;38.95;101370.91;5063586;28;20075;-59
2022/04/29 10:28:09;;;;;;;3.33;0.30;;;;;;;19.33;38.86;101370.72;5062223;28;20414;-59
2022/04/29 10:30:39;;;;;;;1.48;0.30;;;;;;;19.32;38.83;101351.41;5063804;28;20044;-59
2022/04/29 10:33:05;;;;;;;0.90;0.30;;;;;;;19.31;38.90;101356.88;5062225;28;20380;-59
2022/04/29 10:35:40;;;;;;;1.60;0.30;;;;;;;19.29;38.73;101346.50;5063865;28;20592;-60
2022/04/29 10:38:14;;;;;;;1.25;0.40;;;;;;;19.30;38.96;101344.66;5064688;28;20033;-59
2022/04/29 10:40:41;;;;;;;2.97;0.30;;;;;;;19.30;39.09;101340.22;5064258;28;20036;-60
2022/04/29 10:43:09;;;;;;;1.83;0.30;;;;;;;19.31;39.28;101349.78;5066213;28;20033;-59
2022/04/29 10:45:36;;;;;;;0.68;0.30;;;;;;;19.31;39.28;101352.41;5065352;28;20064;-59
2022/04/29 10:48:40;;;;;;;1.70;0.40;;;;;;;19.28;39.35;101336.09;5066529;28;20028;-59
2022/04/29 10:51:09;;;;;;;1.38;0.40;;;;;;;19.27;39.26;101330.00;5000689;28;20587;-60
2022/04/29 10:53:37;;;;;;;1.30;0.30;;;;;;;19.29;39.46;101335.94;5002351;28;20053;-59
2022/04/29 10:56:28;;;;;;;1.98;0.30;;;;;;;19.27;39.78;101334.47;5002721;28;20046;-59
2022/04/29 10:58:58;;;;;;;1.25;0.30;;;;;;;19.27;39.80;101330.00;4984033;28;20035;-59
2022/04/29 11:01:24;;;;;;;1.10;0.30;;;;;;;19.28;40.01;101326.34;4998290;28;20152;-59
2022/04/29 11:03:50;;;;;;;2.15;0.30;;;;;;;19.28;39.96;101326.34;5001626;28;20030;-59
2022/04/29 11:06:16;;;;;;;2.08;0.20;;;;;;;19.29;39.79;101321.91;5002570;28;20120;-59
2022/04/29 11:08:43;;;;;;;1.05;0.40;;;;;;;19.29;40.13;101322.72;5002442;28;20567;-59
2022/04/29 11:11:09;;;;;;;3.95;0.40;;;;;;;19.30;40.32;101327.00;5002458;28;20125;-59
2022/04/29 11:13:47;;;;;;;0.70;0.20;;;;;;;19.30;40.31;101321.72;5000433;28;20045;-59
2022/04/29 11:16:15;;;;;;;2.35;0.30;;;;;;;19.30;40.60;101308.50;5004230;28;20144;-59
2022/04/29 11:18:43;;;;;;;0.60;0.28;;;;;;;19.30;40.65;101297.94;5006082;28;20380;-59
2022/04/29 11:26:43;;;;;;;0.98;0.30;;;;;;;19.28;41.25;101289.38;5067308;28;20131;-59
2022/04/29 11:29:10;;;;;;;1.20;0.30;;;;;;;19.29;41.16;101283.09;5062711;28;20036;-59
2022/04/29 11:31:37;;;;;;;0.75;0.38;;;;;;;19.30;41.29;101270.69;5067831;28;20033;-59
2022/04/29 11:34:09;;;;;;;0.50;0.20;;;;;;;19.28;41.38;101265.59;5066385;28;20530;-59
2022/04/29 11:36:35;;;;;;;2.97;0.50;;;;;;;19.30;41.33;101279.44;5069258;28;20186;-59
2022/04/29 11:39:03;;;;;;;0.40;0.20;;;;;;;19.30;41.21;101271.50;5065973;28;20094;-59
2022/04/29 11:41:30;;;;;;;0.80;0.28;;;;;;;19.31;41.35;101267.88;5067861;28;20035;-59
2022/04/29 11:43:56;;;;;;;4.03;0.40;;;;;;;19.33;41.35;101265.06;5066972;28;20479;-59
2022/04/29 11:46:22;;;;;;;1.63;0.40;;;;;;;19.32;41.29;101253.66;5066366;28;20117;-59
2022/04/29 11:48:51;;;;;;;0.40;0.20;;;;;;;19.33;41.34;101255.31;5066925;28;20034;-59
2022/04/29 11:51:17;;;;;;;0.50;0.20;;;;;;;19.35;41.46;101252.47;5064349;28;20044;-59
2022/04/29 11:54:15;;;;;;;0.75;0.30;;;;;;;19.33;41.29;101252.66;5063581;28;20031;-59